• Join FlightAware (Why Join?)
  • Login
  • US Flag 
07:46AM EDT


 

Airport Tracker/Info


-or-


 

Live Flight TrackerFlight Track Log ✈ N66SG ✈ 02-May-2013 ✈ KUNV - KPTK

Flight Track Log - Related Links

Times and Time Zones

All times are in EDT time to prevent confusion due to time zone crossing. See the N66SG flight status page for this flight to view local times or setup timezone preferences in your user account.

Time Position Orientation Groundspeed Altitude Reporting Facility
EDT Latitude Longitude Course Direction KTS MPH feet Rate Location/Type
11:10PM 40.9616 -78.4508 276° West  Level FlightAware Approximate
11:11PM 40.9746 -78.5799 279° West  Level FlightAware Approximate
11:12PM 40.9893 -78.7087 278° West  Level FlightAware Approximate
11:13PM 41.0023 -78.8380 278° West  Level FlightAware Approximate
11:13PM 40.8194 -77.9039 276° West 464 534 4,300  Level New York Center
11:14PM 41.0151 -78.9672 278° West  Level FlightAware Approximate
11:14PM 40.8178 -78.0042 269° West 282 325 8,700  Level Cleveland Center
11:15PM 41.0292 -79.0963 278° West  Level FlightAware Approximate
11:15PM 40.8753 -78.0594 324° Northwest 228 262 12,300  Level Cleveland Center
11:16PM 41.0509 -79.2234 280° West  Level FlightAware Approximate
11:16PM 40.8922 -78.1686 282° West 269 310 15,900  Level Cleveland Center
11:17PM 41.0681 -79.3519 280° West  Level FlightAware Approximate
11:17PM 40.9197 -78.2831 288° West 304 350 18,900  Level Cleveland Center
11:18PM 41.0833 -79.4806 270° West  Level FlightAware Approximate
11:18PM 40.9447 -78.3922 287° West 315 362 22,400  Level Cleveland Center
11:19PM 41.0871 -79.6109 276° West  Level FlightAware Approximate
11:19PM 40.9761 -78.5203 288° West 333 383 23,100  Level Cleveland Center
11:20PM 41.0078 -78.6625 286° West 374 430 25,500 2,760 Climbing Cleveland Center
11:21PM 41.0369 -78.7856 287° West 398 458 28,700 3,180 Climbing Cleveland Center
11:22PM 41.0750 -78.9497 287° West 398 458 31,900 1,620 Climbing Cleveland Center
11:23PM 41.1061 -79.0922 286° West 398 458 32,000  Climbing Cleveland Center
11:24PM 41.1392 -79.2514 285° West 422 486 32,000  Level Cleveland Center
11:25PM 41.1764 -79.4106 287° West 442 509 32,000  Level Cleveland Center
11:26PM 41.2133 -79.5728 287° West 453 521 32,000 -60 Level Cleveland Center
11:27PM 41.2481 -79.7381 286° West 453 521 31,900 -360 Descending Cleveland Center
11:28PM 41.2847 -79.9006 287° West 458 527 31,300 -720 Descending Cleveland Center
11:29PM 41.3208 -80.0606 287° West 458 527 30,500 -660 Descending Cleveland Center
11:30PM 41.3569 -80.2264 286° West 453 521 30,000 -300 Descending Cleveland Center
11:31PM 41.3908 -80.3922 285° West 459 528 30,000  Level Cleveland Center
11:32PM 41.4264 -80.5583 286° West 464 534 30,000  Level Cleveland Center
11:33PM 41.4597 -80.7217 285° West 464 534 30,000  Level Cleveland Center
11:35PM 41.4947 -80.8881 286° West 464 534 30,000  Level Cleveland Center
11:35PM 41.5567 -81.0328 300° West 457 526 30,000  Level Cleveland Center
11:36PM 41.6269 -81.1775 303° West 462 532 30,000  Level Cleveland Center
11:37PM 41.6969 -81.3228 303° West 462 532 30,000 -480 Level Cleveland Center
11:38PM 41.7647 -81.4683 302° West 462 532 29,100 -1,560 Descending Cleveland Center
11:39PM 41.8364 -81.6144 303° West 462 532 26,900 -2,220 Descending Cleveland Center
11:40PM 41.9058 -81.7606 303° West 462 532 24,700 -2,160 Descending Cleveland Center
11:41PM 41.9731 -81.9097 301° West 462 532 22,600 -2,100 Descending Cleveland Center
11:42PM 42.0403 -82.0508 303° West 462 532 20,500 -1,920 Descending Cleveland Center
11:43PM 42.0969 -82.1753 302° West 452 520 18,800 -1,800 Descending Cleveland Center
11:44PM 42.1594 -82.3086 302° West 441 507 17,000 -1,920 Descending Cleveland Center
11:45PM 42.2219 -82.4450 302° West 435 501 15,000 -2,160 Descending Cleveland Center
11:46PM 42.2522 -82.5103 302° West 415 478 14,000 -1,920 Descending Cleveland Center
11:46PM 42.2803 -82.5731 301° West 425 489 13,100 -1,680 Descending Cleveland Center
11:47PM 42.3386 -82.6983 302° West 410 472 11,400 -1,680 Descending Cleveland Center
11:48PM 42.3706 -82.7697 301° West 387 445 10,700 -900 Descending Cleveland Center
11:48PM 42.3925 -82.8183 301° West 397 457 10,500 -420 Descending Cleveland Center
11:49PM 42.4228 -82.8783 304° West 321 369 10,300 -540 Descending Cleveland Center
11:49PM 42.4406 -82.9242 298° West 363 418 10,000 -1,380 Descending Cleveland Center
11:50PM 42.4686 -82.9842 302° West 299 344 8,800 -2,220 Descending Cleveland Center
11:50PM 42.4864 -83.0272 299° West 308 354 7,800 -2,100 Descending Cleveland Center
11:51PM 42.5161 -83.0903 303° West 281 323 6,500 -2,040 Descending Cleveland Center
11:51PM 42.5261 -83.1161 298° West 291 335 5,800 -1,980 Descending Cleveland Center
11:52PM 42.5542 -83.1678 306° West 276 318 4,700 -1,920 Descending Cleveland Center
11:52PM 42.5700 -83.2025 302° West 280 322 3,900 -1,800 Descending Cleveland Center
11:53PM 42.5983 -83.2431 314° West 267 307 3,100 -1,020 Descending Cleveland Center
11:53PM 42.6183 -83.2750 310° West 275 316 2,900 -600 Descending Cleveland Center
11:54PM 42.6511 -83.2989 332° Northwest 197 227 2,500 -720 Descending Cleveland Center
11:55PM 42.6667 -83.3533 291° West 158 182 1,800 -720 Descending Cleveland Center
11:57PM 42.6500 -83.4167 294° West  Level FlightAware Approximate
12:04AM 42.6656 -83.4205 294° West  Level Estimated
12:05AM 42.6656 -83.4205 294° West  Level Estimated